Terminal Aerodrome Forecast
Issued by NWS

Home | Current Version | Previous Version | Text Only | Print | Product List | Glossary On
Versions: 1 2 3 4 5 6 7 8 9 10 11 12 13 14 15 16 17 18
000
FTUS43 KGLD 061737
TAFMCK
TAF
KMCK 061737Z 0618/0718 28012KT P6SM SKC
     FM062000 29009KT P6SM SCT250
     FM070900 05008KT 5SM -SN BKN035
     FM071100 01011KT 3SM -SN OVC025=

USA.gov is the U.S. government's official web portal to all federal, state and local government web resources and services.